Terminal Aerodrome Forecast
Issued by NWS Sioux Falls, SD

Home | Current Version | Previous Version | Text Only | Print | Product List | Glossary On
Versions: 1 2 3 4 5 6 7 8 9 10 11 12 13 14 15 16
000
FTUS43 KFSD 232320
TAFSUX
TAF
KSUX 232320Z 2400/2424 16009KT P6SM VCTS BKN035CB
     FM240500 17006KT P6SM BKN050
     FM240800 27006KT P6SM SCT050
     FM241000 31006KT P6SM SCT200
     FM241500 35009KT P6SM SCT200=

USA.gov is the U.S. government's official web portal to all federal, state and local government web resources and services.